createdAt,value
2022-12-25T00:01:33.892Z,18.05
2022-12-25T00:04:01.528Z,18.73
2022-12-25T00:06:28.875Z,21.42
2022-12-25T00:08:56.493Z,23.20
2022-12-25T00:11:23.799Z,21.10
2022-12-25T00:13:51.374Z,18.45
2022-12-25T00:16:20.404Z,15.48
2022-12-25T00:18:48.221Z,17.48
2022-12-25T00:21:15.629Z,18.48
2022-12-25T00:23:43.307Z,20.48
2022-12-25T00:58:35.923Z,13.05
2022-12-25T01:01:03.609Z,13.82
2022-12-25T01:03:31.481Z,12.95
2022-12-25T01:06:00.142Z,13.80
2022-12-25T01:08:32.450Z,15.43
2022-12-25T01:11:01.277Z,12.07
2022-12-25T01:13:28.950Z,11.18
2022-12-25T01:15:56.596Z,14.38
2022-12-25T01:18:24.644Z,13.02
2022-12-25T01:20:52.186Z,12.55
2022-12-25T01:23:19.804Z,11.73
2022-12-25T01:25:52.907Z,14.50
2022-12-25T01:28:34.803Z,13.77
2022-12-25T01:31:02.447Z,20.07
2022-12-25T01:33:30.124Z,14.43
2022-12-25T01:36:20.619Z,15.02
2022-12-25T01:39:06.824Z,11.10
2022-12-25T01:41:34.166Z,15.77
2022-12-25T01:44:07.501Z,12.57
2022-12-25T01:46:35.370Z,17.52
2022-12-25T01:49:04.404Z,12.70
2022-12-25T01:51:34.660Z,15.85
2022-12-25T01:54:04.931Z,16.35
2022-12-25T01:56:32.953Z,13.50
2022-12-25T01:59:01.739Z,17.52
2022-12-25T02:01:29.290Z,16.33
2022-12-25T02:03:59.434Z,13.85
2022-12-25T02:06:27.592Z,13.73
2022-12-25T02:08:55.345Z,15.23
2022-12-25T02:11:22.671Z,12.85
2022-12-25T02:32:46.009Z,27.58
2022-12-25T02:35:16.441Z,23.80
2022-12-25T02:37:55.578Z,32.78
2022-12-25T02:40:28.380Z,29.10
2022-12-25T02:42:58.448Z,23.90
2022-12-25T02:45:30.324Z,20.67
2022-12-25T02:47:57.724Z,21.98
2022-12-25T02:50:25.591Z,26.38
2022-12-25T03:00:07.622Z,16.25
2022-12-25T03:02:35.470Z,19.73
2022-12-25T03:05:04.442Z,28.73
2022-12-25T03:07:32.699Z,22.58
2022-12-25T03:10:03.293Z,17.45
2022-12-25T03:12:49.529Z,21.33
2022-12-25T03:15:17.741Z,16.27
2022-12-25T03:17:45.384Z,18.70
2022-12-25T03:27:41.553Z,14.35
2022-12-25T03:30:09.251Z,13.70
2022-12-25T03:32:36.801Z,16.38
2022-12-25T03:35:18.078Z,17.23
2022-12-25T03:37:51.145Z,18.15
2022-12-25T03:40:21.237Z,17.92
2022-12-25T03:42:51.310Z,22.92
2022-12-25T03:45:26.893Z,19.27
2022-12-25T03:47:55.199Z,17.83
2022-12-25T03:50:28.427Z,19.58
2022-12-25T03:52:58.915Z,17.05
2022-12-25T03:55:26.683Z,15.52
2022-12-25T03:57:54.465Z,16.45
2022-12-25T04:00:21.745Z,17.73
2022-12-25T04:02:49.443Z,14.45
2022-12-25T04:05:16.997Z,17.67
2022-12-25T04:07:44.595Z,20.75
2022-12-25T04:10:11.889Z,14.80
2022-12-25T04:12:39.445Z,19.20
2022-12-25T04:15:06.990Z,15.45
2022-12-25T04:17:34.552Z,18.38
2022-12-25T04:20:01.882Z,15.38
2022-12-25T04:22:29.473Z,21.15
2022-12-25T04:24:56.773Z,11.57
2022-12-25T04:27:24.390Z,16.60
2022-12-25T04:29:51.732Z,15.80
2022-12-25T04:32:19.343Z,14.30
2022-12-25T04:34:46.650Z,18.98
2022-12-25T04:37:14.213Z,12.90
2022-12-25T04:39:41.555Z,17.02
2022-12-25T04:42:09.177Z,15.23
2022-12-25T04:44:36.482Z,16.70
2022-12-25T04:47:10.784Z,17.27
2022-12-25T04:49:38.765Z,19.85
2022-12-25T04:52:06.341Z,18.30
2022-12-25T04:54:33.634Z,19.08
2022-12-25T04:57:01.201Z,17.42
2022-12-25T04:59:28.601Z,18.20
2022-12-25T05:01:56.466Z,18.50
2022-12-25T05:04:23.819Z,18.85
2022-12-25T05:06:51.388Z,17.67
2022-12-25T05:09:18.683Z,16.92
2022-12-25T05:11:46.282Z,17.70
2022-12-25T05:14:13.750Z,19.38
2022-12-25T05:16:41.409Z,21.33
2022-12-25T05:19:08.767Z,22.27
2022-12-25T05:21:36.383Z,17.98
2022-12-25T05:24:03.823Z,20.50
2022-12-25T05:26:31.433Z,17.42
2022-12-25T05:28:58.994Z,15.82
2022-12-25T05:31:26.614Z,16.80
2022-12-25T05:33:53.950Z,14.88
2022-12-25T05:36:21.582Z,13.60
2022-12-25T05:38:48.996Z,15.60
2022-12-25T05:41:16.658Z,15.90
2022-12-25T05:43:44.016Z,12.68
2022-12-25T05:46:13.113Z,16.17
2022-12-25T05:48:40.618Z,13.55
2022-12-25T05:51:12.066Z,16.50
2022-12-25T05:53:39.831Z,15.32
2022-12-25T05:56:08.315Z,14.35
2022-12-25T05:58:37.424Z,16.75
2022-12-25T06:01:10.348Z,22.17
2022-12-25T06:03:37.682Z,16.60
2022-12-25T06:06:05.583Z,17.25
2022-12-25T06:08:32.908Z,14.43
2022-12-25T06:11:02.793Z,15.25
2022-12-25T06:13:30.303Z,14.55
2022-12-25T06:15:58.061Z,18.45
2022-12-25T06:18:25.943Z,15.27
2022-12-25T06:20:53.563Z,18.48
2022-12-25T06:23:20.912Z,19.65
2022-12-25T06:25:48.581Z,26.08
2022-12-25T06:28:15.855Z,20.20
2022-12-25T06:30:43.445Z,18.27
2022-12-25T06:33:10.740Z,21.92
2022-12-25T06:35:39.126Z,21.85
2022-12-25T06:38:06.853Z,18.05
2022-12-25T06:40:34.904Z,16.73
2022-12-25T06:43:02.193Z,18.60
2022-12-25T06:45:29.846Z,19.42
2022-12-25T06:47:57.144Z,17.50
2022-12-25T06:50:24.740Z,22.35
2022-12-25T06:52:52.032Z,16.08
2022-12-25T06:55:19.608Z,20.00
2022-12-25T06:57:46.946Z,21.95
2022-12-25T07:00:14.721Z,19.00
2022-12-25T07:06:04.232Z,21.75
2022-12-25T07:08:31.819Z,20.73
2022-12-25T07:10:59.726Z,18.63
2022-12-25T07:13:27.344Z,18.25
2022-12-25T07:15:58.103Z,21.75
2022-12-25T07:18:26.293Z,21.45
2022-12-25T07:20:53.640Z,21.48
2022-12-25T07:23:21.869Z,24.48
2022-12-25T07:25:56.104Z,20.85
2022-12-25T07:35:48.791Z,19.23
2022-12-25T11:50:34.279Z,10.50
2022-12-25T12:14:45.598Z,12.40
2022-12-25T12:25:07.013Z,15.57
2022-12-25T12:30:24.179Z,11.75
2022-12-25T12:35:25.430Z,12.25
2022-12-25T12:37:57.077Z,12.35
2022-12-25T12:40:24.695Z,11.73
2022-12-25T12:45:26.694Z,12.18
2022-12-25T12:55:32.269Z,12.30
2022-12-25T12:58:00.698Z,15.35
2022-12-25T13:00:54.488Z,19.67
2022-12-25T13:03:21.844Z,13.77
2022-12-25T13:05:55.305Z,12.15
2022-12-25T13:08:25.327Z,10.02
2022-12-25T13:11:03.066Z,14.00
2022-12-25T13:13:39.504Z,11.95
2022-12-25T13:16:13.003Z,14.23
2022-12-25T13:18:40.323Z,12.60
2022-12-25T13:21:08.539Z,13.70
2022-12-25T13:23:37.002Z,16.48
2022-12-25T13:26:17.297Z,15.07
2022-12-25T13:28:46.539Z,14.75
2022-12-25T13:31:21.551Z,13.45
2022-12-25T13:33:59.271Z,11.98
2022-12-25T13:36:28.557Z,13.40
2022-12-25T13:38:57.142Z,13.13
2022-12-25T13:41:26.262Z,12.95
2022-12-25T13:43:57.123Z,17.02
2022-12-25T13:46:26.392Z,12.52
2022-12-25T13:49:00.438Z,16.02
2022-12-25T13:51:28.695Z,10.48
2022-12-25T13:54:05.564Z,13.50
2022-12-25T13:56:34.278Z,15.70
2022-12-25T13:59:01.691Z,20.52
2022-12-25T14:01:32.118Z,22.75
2022-12-25T14:03:59.484Z,21.02
2022-12-25T14:06:30.911Z,24.25
2022-12-25T14:08:58.867Z,22.20
2022-12-25T14:11:28.107Z,29.70
2022-12-25T14:13:59.892Z,28.02
2022-12-25T14:16:27.702Z,24.98
2022-12-25T14:18:56.463Z,24.67
2022-12-25T14:21:24.148Z,25.10
2022-12-25T14:23:52.750Z,24.13
2022-12-25T14:26:25.037Z,24.95
2022-12-25T14:29:15.334Z,26.08
2022-12-25T14:31:45.631Z,25.35
2022-12-25T14:34:21.455Z,33.50
2022-12-25T14:36:50.017Z,25.70
2022-12-25T14:39:36.738Z,21.48
2022-12-25T14:42:22.988Z,22.30
2022-12-25T14:45:02.439Z,22.65
2022-12-25T14:47:31.036Z,21.33
2022-12-25T14:49:58.367Z,19.48
2022-12-25T14:52:44.906Z,19.80
2022-12-25T14:55:19.703Z,28.38
2022-12-25T14:57:49.117Z,23.55
2022-12-25T15:00:28.756Z,32.88
2022-12-25T15:02:57.432Z,27.63
2022-12-25T15:05:45.238Z,22.17
2022-12-25T15:08:19.590Z,19.98
2022-12-25T15:11:03.368Z,24.25
2022-12-25T15:13:31.457Z,17.48
2022-12-25T15:16:03.712Z,20.13
2022-12-25T15:18:34.413Z,28.75
2022-12-25T15:21:01.776Z,58.08
2022-12-25T15:23:29.512Z,85.50
2022-12-25T15:25:56.891Z,35.30
2022-12-25T15:28:24.528Z,25.80
2022-12-25T15:30:51.935Z,17.15
2022-12-25T15:33:19.585Z,18.38
2022-12-25T15:35:46.890Z,23.65
2022-12-25T15:38:14.472Z,19.17
2022-12-25T15:40:41.917Z,20.10
2022-12-25T15:43:31.214Z,23.02
2022-12-25T15:45:59.349Z,27.13
2022-12-25T15:48:27.002Z,28.05
2022-12-25T15:50:54.340Z,28.17
2022-12-25T15:53:22.004Z,26.25
2022-12-25T15:55:49.404Z,19.08
2022-12-25T15:58:17.016Z,22.08
2022-12-25T16:00:44.347Z,20.92
2022-12-25T16:03:12.082Z,20.05
2022-12-25T16:05:39.518Z,25.63
2022-12-25T16:08:07.117Z,29.90
2022-12-25T16:10:38.683Z,23.75
2022-12-25T16:15:33.931Z,27.02
2022-12-25T16:18:01.555Z,27.27
2022-12-25T16:20:28.922Z,32.00
2022-12-25T16:22:56.575Z,32.70
2022-12-25T16:25:23.915Z,31.20
2022-12-25T16:27:51.478Z,34.58
2022-12-25T16:30:18.926Z,28.80
2022-12-25T16:32:48.688Z,29.48
2022-12-25T16:35:16.042Z,32.67
2022-12-25T16:37:43.670Z,32.65
2022-12-25T16:40:11.260Z,33.70
2022-12-25T16:42:38.892Z,34.13
2022-12-25T16:45:06.470Z,34.22
2022-12-25T16:47:34.435Z,29.60
2022-12-25T16:50:01.946Z,35.20
2022-12-25T16:52:30.092Z,30.30
2022-12-25T16:54:57.664Z,29.92
2022-12-25T16:57:25.232Z,30.83
2022-12-25T16:59:52.759Z,41.75
2022-12-25T17:02:21.019Z,31.65
2022-12-25T17:04:48.452Z,36.58
2022-12-25T17:07:16.562Z,29.85
2022-12-25T17:09:46.655Z,39.85
2022-12-25T17:12:14.434Z,38.22
2022-12-25T17:14:41.879Z,33.03
2022-12-25T17:17:09.490Z,31.77
2022-12-25T17:19:36.951Z,30.55
2022-12-25T17:22:04.506Z,33.42
2022-12-25T17:24:31.813Z,34.35
2022-12-25T17:27:00.869Z,29.98
2022-12-25T17:29:28.339Z,31.92
2022-12-25T17:31:56.204Z,30.00
2022-12-25T17:34:23.555Z,29.73
2022-12-25T17:36:52.529Z,27.20
2022-12-25T17:39:19.857Z,36.70
2022-12-25T17:41:48.886Z,32.00
2022-12-25T17:44:16.828Z,33.30
2022-12-25T17:46:44.522Z,31.10
2022-12-25T17:49:16.610Z,31.80
2022-12-25T17:54:11.629Z,28.55
2022-12-25T17:56:39.274Z,32.45
2022-12-25T17:59:06.833Z,28.50
2022-12-25T18:01:35.680Z,30.85
2022-12-25T18:04:03.201Z,28.48
2022-12-25T18:06:36.909Z,38.85
2022-12-25T18:09:07.417Z,25.50
2022-12-25T18:11:37.668Z,26.98
2022-12-25T18:14:05.760Z,26.58
2022-12-25T18:16:34.718Z,25.60
2022-12-25T18:19:02.376Z,33.13
2022-12-25T18:21:30.017Z,31.27
2022-12-25T18:23:57.594Z,32.20
2022-12-25T18:26:25.375Z,34.20
2022-12-25T18:28:52.672Z,30.50
2022-12-25T18:31:21.883Z,31.75
2022-12-25T18:33:49.871Z,35.58
2022-12-25T18:36:20.352Z,31.17
2022-12-25T18:38:48.819Z,42.10
2022-12-25T18:41:16.404Z,51.35
2022-12-25T18:43:53.846Z,53.08
2022-12-25T18:46:27.111Z,42.33
2022-12-25T18:48:55.908Z,37.25
2022-12-25T18:51:23.925Z,43.45
2022-12-25T18:53:51.340Z,46.40
2022-12-25T18:56:19.475Z,34.50
2022-12-25T18:58:47.223Z,38.65
2022-12-25T19:01:19.030Z,54.88
2022-12-25T19:03:46.734Z,40.60
2022-12-25T19:06:27.334Z,47.80
2022-12-25T19:08:54.998Z,38.72
2022-12-25T19:11:22.742Z,42.55
2022-12-25T19:13:50.099Z,49.53
2022-12-25T19:16:17.916Z,45.45
2022-12-25T19:18:45.554Z,43.97
2022-12-25T19:21:35.018Z,43.20
2022-12-25T19:24:02.356Z,40.63
2022-12-25T19:26:30.034Z,44.47
2022-12-25T19:28:57.337Z,40.95
2022-12-25T19:31:25.043Z,41.75
2022-12-25T19:33:52.431Z,44.15
2022-12-25T19:36:20.093Z,35.85
2022-12-25T19:38:47.409Z,38.33
2022-12-25T19:41:16.846Z,44.00
2022-12-25T19:43:45.150Z,39.75
2022-12-25T19:46:33.285Z,38.90
2022-12-25T19:49:00.960Z,38.10
2022-12-25T19:51:29.379Z,37.10
2022-12-25T19:53:56.890Z,34.92
2022-12-25T19:56:25.216Z,39.97
2022-12-25T19:58:52.603Z,37.88
2022-12-25T20:01:21.613Z,32.92
2022-12-25T20:03:49.648Z,36.10
2022-12-25T20:06:19.025Z,37.17
2022-12-25T20:08:46.810Z,36.03
2022-12-25T20:11:14.776Z,35.08
2022-12-25T20:13:42.128Z,39.53
2022-12-25T20:16:10.321Z,30.00
2022-12-25T20:18:38.530Z,29.05
2022-12-25T20:21:11.566Z,40.17
2022-12-25T20:23:38.957Z,32.90
2022-12-25T20:26:06.685Z,31.40
2022-12-25T20:28:34.858Z,39.72
2022-12-25T20:31:09.828Z,38.05
2022-12-25T20:33:37.122Z,29.30
2022-12-25T20:36:05.234Z,34.10
2022-12-25T20:38:32.790Z,31.08
2022-12-25T20:43:55.679Z,35.85
2022-12-25T20:46:24.287Z,28.52
2022-12-25T20:48:52.026Z,31.48
2022-12-25T20:51:24.095Z,36.90
2022-12-25T20:53:51.904Z,32.25
2022-12-25T20:56:20.412Z,34.15
2022-12-25T20:58:47.843Z,32.72
2022-12-25T21:01:18.607Z,34.65
2022-12-25T21:03:46.419Z,31.13
2022-12-25T21:06:14.059Z,29.60
2022-12-25T21:08:41.407Z,26.48
2022-12-25T21:11:09.208Z,31.25
2022-12-25T21:13:37.814Z,33.30
2022-12-25T21:16:06.340Z,29.60
2022-12-25T21:18:33.874Z,33.00
2022-12-25T21:21:01.863Z,29.42
2022-12-25T21:23:29.195Z,23.33
2022-12-25T21:25:56.756Z,24.73
2022-12-25T21:28:24.100Z,23.02
2022-12-25T21:30:51.822Z,22.27
2022-12-25T21:33:19.153Z,23.23
2022-12-25T21:35:47.007Z,20.45
2022-12-25T21:38:14.371Z,18.30
2022-12-25T21:40:41.970Z,17.20
2022-12-25T21:43:11.095Z,20.75
2022-12-25T21:45:38.706Z,19.83
2022-12-25T21:48:06.076Z,23.25
2022-12-25T21:50:39.106Z,23.83
2022-12-25T21:53:06.881Z,26.08
2022-12-25T21:55:34.460Z,19.80
2022-12-25T21:58:02.108Z,26.60
2022-12-25T22:00:29.702Z,17.90
2022-12-25T22:02:57.610Z,21.35
2022-12-25T22:08:57.322Z,23.40
2022-12-25T22:11:25.289Z,22.00
2022-12-25T22:13:52.610Z,27.30
2022-12-25T22:16:20.256Z,18.48
2022-12-25T22:18:47.598Z,21.25
2022-12-25T22:21:18.946Z,21.92
2022-12-25T22:23:46.882Z,19.23
2022-12-25T22:26:20.502Z,22.90
2022-12-25T22:28:48.225Z,24.05
2022-12-25T22:31:15.964Z,24.10
2022-12-25T22:33:43.255Z,30.92
2022-12-25T22:36:10.879Z,27.40
2022-12-25T22:38:41.338Z,24.45
2022-12-25T22:41:09.005Z,29.73
2022-12-25T22:44:14.368Z,21.92
2022-12-25T22:46:23.892Z,26.52
2022-12-25T22:48:51.216Z,28.58
2022-12-25T22:51:18.869Z,21.55
2022-12-25T22:53:46.202Z,23.10
2022-12-25T22:56:13.836Z,26.73
2022-12-25T22:58:41.154Z,27.98
2022-12-25T23:01:09.151Z,21.88
2022-12-25T23:03:36.530Z,22.88
2022-12-25T23:06:04.227Z,22.88
2022-12-25T23:08:31.583Z,25.30
2022-12-25T23:11:02.586Z,21.42
2022-12-25T23:13:30.025Z,24.23
2022-12-25T23:15:57.798Z,23.45
2022-12-25T23:18:25.180Z,25.15
2022-12-25T23:20:52.908Z,26.63
2022-12-25T23:23:20.225Z,21.98
2022-12-25T23:25:48.093Z,17.77
2022-12-25T23:28:15.744Z,23.45
2022-12-25T23:30:43.359Z,29.48
2022-12-25T23:33:10.703Z,24.15
2022-12-25T23:35:38.267Z,24.55
2022-12-25T23:38:05.605Z,27.15
2022-12-25T23:40:33.214Z,29.42
2022-12-25T23:43:00.509Z,29.75
2022-12-25T23:45:28.108Z,25.35
2022-12-25T23:47:55.400Z,22.20
2022-12-25T23:50:22.980Z,20.63
2022-12-25T23:52:50.337Z,20.70
2022-12-25T23:55:17.896Z,20.95
2022-12-25T23:57:45.247Z,22.58
